Time,TemperatureF,DewpointF,PressureIn,WindDirection,WindDirectionDegrees,WindSpeedMPH,WindSpeedGustMPH,Humidity,HourlyPrecipIn,Conditions,Clouds,dailyrainin,SoftwareType,DateUTC
2013-09-01 00:03:00,65.0,62.0,-100.00,ENE,65,0.0,1.0,90,0.00,,,-99.99,,2013-09-01 05:03:00,
2013-09-01 00:12:00,65.0,62.0,-100.00,ENE,65,0.0,1.0,90,0.00,,,-99.99,,2013-09-01 05:12:00,
2013-09-01 00:52:00,65.0,62.0,-100.00,SW,230,1.0,2.0,91,0.00,,,-99.99,,2013-09-01 05:52:00,
2013-09-01 01:02:00,65.0,62.0,-100.00,SW,230,1.0,2.0,91,0.00,,,-99.99,,2013-09-01 06:02:00,
2013-09-01 01:12:00,65.0,62.0,-100.00,SW,230,1.0,2.0,91,0.00,,,-99.99,,2013-09-01 06:12:00,
2013-09-01 01:52:00,65.0,62.0,-100.00,South,175,5.0,6.0,91,0.00,,,-99.99,,2013-09-01 06:52:00,
2013-09-01 02:02:00,65.0,62.0,-100.00,South,175,5.0,6.0,91,0.00,,,-99.99,,2013-09-01 07:02:00,
2013-09-01 02:12:00,65.0,62.0,-100.00,South,175,5.0,6.0,91,0.00,,,-99.99,,2013-09-01 07:12:00,
2013-09-01 02:52:00,64.0,61.0,-100.00,ENE,75,3.0,4.0,91,0.00,,,-99.99,,2013-09-01 07:52:00,
2013-09-01 03:02:00,64.0,61.0,-100.00,ENE,75,3.0,4.0,91,0.00,,,-99.99,,2013-09-01 08:02:00,
2013-09-01 03:11:00,64.0,61.0,-100.00,ENE,75,3.0,4.0,91,0.00,,,-99.99,,2013-09-01 08:11:00,
2013-09-01 03:52:00,64.0,61.0,-100.00,South,175,3.0,4.0,91,0.00,,,-99.99,,2013-09-01 08:52:00,
2013-09-01 04:02:00,64.0,61.0,-100.00,South,175,3.0,4.0,91,0.00,,,-99.99,,2013-09-01 09:02:00,
2013-09-01 04:11:00,64.0,61.0,-100.00,South,175,3.0,4.0,91,0.00,,,-99.99,,2013-09-01 09:11:00,
2013-09-01 04:53:00,63.0,61.0,-100.00,SSE,150,3.0,4.0,91,0.00,,,-99.99,,2013-09-01 09:53:00,
2013-09-01 05:03:00,63.0,61.0,-100.00,SSE,150,3.0,4.0,91,0.00,,,-99.99,,2013-09-01 10:03:00,
2013-09-01 05:12:00,63.0,61.0,-100.00,SSE,150,3.0,4.0,91,0.00,,,-99.99,,2013-09-01 10:12:00,
2013-09-01 05:53:00,62.0,60.0,-100.00,West,260,2.0,6.0,91,0.00,,,-99.99,,2013-09-01 10:53:00,
2013-09-01 06:02:00,62.0,60.0,-100.00,West,260,2.0,6.0,91,0.00,,,-99.99,,2013-09-01 11:02:00,
2013-09-01 06:12:00,62.0,60.0,-100.00,West,260,2.0,6.0,91,0.00,,,-99.99,,2013-09-01 11:12:00,
2013-09-01 06:52:00,63.0,61.0,-100.00,SW,230,2.0,5.0,91,0.00,,,-99.99,,2013-09-01 11:52:00,
2013-09-01 07:01:00,63.0,61.0,-100.00,SW,230,2.0,5.0,91,0.00,,,-99.99,,2013-09-01 12:01:00,
2013-09-01 07:12:00,63.0,61.0,-100.00,SW,230,2.0,5.0,91,0.00,,,-99.99,,2013-09-01 12:12:00,
2013-09-01 07:52:00,64.0,61.0,-100.00,SSW,195,2.0,4.0,91,0.00,,,-99.99,,2013-09-01 12:52:00,
2013-09-01 08:02:00,64.0,61.0,-100.00,SSW,195,2.0,4.0,91,0.00,,,-99.99,,2013-09-01 13:02:00,
2013-09-01 08:11:00,64.0,61.0,-100.00,SSW,195,2.0,4.0,91,0.00,,,-99.99,,2013-09-01 13:11:00,
2013-09-01 08:52:00,67.0,64.0,-100.00,South,185,2.0,4.0,91,0.00,,,-99.99,,2013-09-01 13:52:00,
2013-09-01 09:02:00,67.0,64.0,-100.00,South,185,2.0,4.0,91,0.00,,,-99.99,,2013-09-01 14:02:00,
2013-09-01 09:11:00,67.0,64.0,-100.00,South,185,2.0,4.0,91,0.00,,,-99.99,,2013-09-01 14:11:00,
2013-09-01 09:52:00,71.0,68.0,-100.00,SSW,205,4.0,10.0,91,0.00,,,-99.99,,2013-09-01 14:52:00,
2013-09-01 10:02:00,71.0,68.0,-100.00,SSW,205,4.0,10.0,91,0.00,,,-99.99,,2013-09-01 15:02:00,
2013-09-01 10:11:00,71.0,68.0,-100.00,SSW,205,4.0,10.0,91,0.00,,,-99.99,,2013-09-01 15:11:00,
2013-09-01 10:55:00,75.0,69.0,-100.00,SW,230,7.0,12.0,82,0.00,,,-99.99,,2013-09-01 15:55:00,
2013-09-01 11:05:00,75.0,69.0,-100.00,SW,230,7.0,12.0,82,0.00,,,-99.99,,2013-09-01 16:05:00,
2013-09-01 11:14:00,75.0,69.0,-100.00,SW,230,7.0,12.0,82,0.00,,,-99.99,,2013-09-01 16:14:00,
2013-09-01 11:53:00,79.0,69.0,-100.00,SW,235,7.0,15.0,72,0.00,,,-99.99,,2013-09-01 16:53:00,
2013-09-01 12:03:00,79.0,69.0,-100.00,SW,235,7.0,15.0,72,0.00,,,-99.99,,2013-09-01 17:03:00,
2013-09-01 12:12:00,79.0,69.0,-100.00,SW,235,7.0,15.0,72,0.00,,,-99.99,,2013-09-01 17:12:00,
2013-09-01 12:52:00,81.0,67.0,-100.00,WSW,255,9.0,14.0,63,0.00,,,-99.99,,2013-09-01 17:52:00,
2013-09-01 13:02:00,81.0,67.0,-100.00,WSW,255,9.0,14.0,63,0.00,,,-99.99,,2013-09-01 18:02:00,
2013-09-01 13:13:00,81.0,67.0,-100.00,WSW,255,9.0,14.0,63,0.00,,,-99.99,,2013-09-01 18:13:00,
2013-09-01 13:52:00,85.0,64.0,-100.00,WNW,285,4.0,16.0,50,0.00,,,-99.99,,2013-09-01 18:52:00,
2013-09-01 14:02:00,85.0,64.0,-100.00,WNW,285,4.0,16.0,50,0.00,,,-99.99,,2013-09-01 19:02:00,
2013-09-01 14:12:00,85.0,64.0,-100.00,WNW,285,4.0,16.0,50,0.00,,,-99.99,,2013-09-01 19:12:00,
2013-09-01 15:12:00,83.0,59.0,-100.00,WNW,300,14.0,23.0,43,0.00,,,-99.99,,2013-09-01 20:12:00,
2013-09-01 16:55:00,84.0,51.0,-100.00,NW,305,12.0,22.0,32,0.00,,,-99.99,,2013-09-01 21:55:00,
2013-09-01 17:04:00,84.0,51.0,-100.00,NW,305,12.0,22.0,32,0.00,,,-99.99,,2013-09-01 22:04:00,
2013-09-01 17:14:00,84.0,51.0,-100.00,NW,305,12.0,22.0,32,0.00,,,-99.99,,2013-09-01 22:14:00,
2013-09-01 18:53:00,78.0,51.0,-100.00,NNW,335,10.0,20.0,38,0.00,,,-99.99,,2013-09-01 23:53:00,
2013-09-01 19:02:00,78.0,51.0,-100.00,NNW,335,10.0,20.0,38,0.00,,,-99.99,,2013-09-02 00:02:00,
2013-09-01 19:11:00,78.0,51.0,-100.00,NNW,335,10.0,20.0,38,0.00,,,-99.99,,2013-09-02 00:11:00,
2013-09-01 19:52:00,75.0,50.0,-100.00,NW,315,9.0,16.0,42,0.00,,,-99.99,,2013-09-02 00:52:00,
2013-09-01 20:02:00,75.0,50.0,-100.00,NW,315,9.0,16.0,42,0.00,,,-99.99,,2013-09-02 01:02:00,
2013-09-01 20:12:00,75.0,50.0,-100.00,NW,315,9.0,16.0,42,0.00,,,-99.99,,2013-09-02 01:12:00,
2013-09-01 20:52:00,74.0,52.0,-100.00,NW,325,7.0,13.0,47,0.00,,,-99.99,,2013-09-02 01:52:00,
2013-09-01 21:02:00,74.0,52.0,-100.00,NW,325,7.0,13.0,47,0.00,,,-99.99,,2013-09-02 02:02:00,
2013-09-01 21:12:00,74.0,52.0,-100.00,NW,325,7.0,13.0,47,0.00,,,-99.99,,2013-09-02 02:12:00,
2013-09-01 21:52:00,72.0,54.0,-100.00,NW,310,6.0,10.0,55,0.00,,,-99.99,,2013-09-02 02:52:00,
2013-09-01 22:02:00,72.0,54.0,-100.00,NW,310,6.0,10.0,55,0.00,,,-99.99,,2013-09-02 03:02:00,
2013-09-01 22:11:00,72.0,54.0,-100.00,NW,310,6.0,10.0,55,0.00,,,-99.99,,2013-09-02 03:11:00,
2013-09-01 22:56:00,70.0,56.0,-100.00,WNW,295,5.0,7.0,63,0.00,,,-99.99,,2013-09-02 03:56:00,
2013-09-01 23:04:00,70.0,56.0,-100.00,WNW,295,5.0,7.0,63,0.00,,,-99.99,,2013-09-02 04:04:00,
2013-09-01 23:14:00,70.0,56.0,-100.00,WNW,295,5.0,7.0,63,0.00,,,-99.99,,2013-09-02 04:14:00,
2013-09-01 23:54:00,69.0,57.0,-100.00,WNW,300,7.0,12.0,67,0.00,,,-99.99,,2013-09-02 04:54:00,